Time;durP1;ratioP1;P1;durP2;ratioP2;P2;SDS_P1;SDS_P2;PMS_P1;PMS_P2;Temp;Humidity;BMP_temperature;BMP_pressure;BME280_temperature;BME280_humidity;BME280_pressure;Samples;Min_cycle;Max_cycle;Signal;HPM_P1;HPM_P2
2023/03/30 00:02:43;;;;;;;1.40;1.40;;;;;;;;;;6169531;28;20612;-75
2023/03/30 00:05:50;;;;;;;1.60;1.60;;;;;;;;;;6172732;28;20485;-75
2023/03/30 00:08:57;;;;;;;1.63;1.40;;;;;;;;;;6175014;28;20571;-75
2023/03/30 00:12:02;;;;;;;1.33;1.33;;;;;;;;;;6195646;28;20294;-76
2023/03/30 00:15:11;;;;;;;1.70;1.60;;;;;;;;;;6210595;28;20327;-76
2023/03/30 00:18:16;;;;;;;1.43;1.43;;;;;;;;;;6213039;28;20290;-76
2023/03/30 00:21:22;;;;;;;1.47;1.47;;;;;;;;;;6212894;28;20649;-76
2023/03/30 00:24:27;;;;;;;1.33;1.33;;;;;;;;;;6210445;28;20315;-75
2023/03/30 00:27:32;;;;;;;1.40;1.40;;;;;;;;;;6212803;28;20322;-76
2023/03/30 00:30:38;;;;;;;1.43;1.43;;;;;;;;;;6206728;28;20292;-76
2023/03/30 00:33:43;;;;;;;2.20;1.40;;;;;;;;;;6186811;28;20304;-75
2023/03/30 00:36:53;;;;;;;1.50;1.40;;;;;;;;;;6187096;28;20299;-76
2023/03/30 00:39:58;;;;;;;1.20;1.10;;;;;;;;;;6165060;28;20305;-75
2023/03/30 00:43:05;;;;;;;2.60;1.23;;;;;;;;;;6162697;28;20294;-76
2023/03/30 00:46:12;;;;;;;1.43;1.40;;;;;;;;;;6163417;28;20597;-75
2023/03/30 00:49:18;;;;;;;1.40;1.30;;;;;;;;;;6160997;28;20338;-76
2023/03/30 00:52:26;;;;;;;1.30;1.30;;;;;;;;;;6178051;28;20324;-74
2023/03/30 00:55:32;;;;;;;1.60;1.60;;;;;;;;;;6185966;28;20351;-76
2023/03/30 00:58:40;;;;;;;1.37;1.37;;;;;;;;;;6175363;28;20300;-76
2023/03/30 01:01:49;;;;;;;1.30;1.30;;;;;;;;;;6161890;28;20272;-77
2023/03/30 01:04:57;;;;;;;1.60;1.60;;;;;;;;;;6214692;23;20320;-74
2023/03/30 01:08:06;;;;;;;1.30;1.30;;;;;;;;;;6219027;28;20288;-74
2023/03/30 01:11:12;;;;;;;2.93;1.40;;;;;;;;;;6238655;28;20302;-74
2023/03/30 01:14:18;;;;;;;3.27;1.50;;;;;;;;;;6228324;28;20295;-74
2023/03/30 01:17:29;;;;;;;1.50;1.50;;;;;;;;;;6237442;28;20299;-74
2023/03/30 01:20:59;;;;;;;1.30;1.30;;;;;;;;;;6237815;28;20296;-74
2023/03/30 01:24:33;;;;;;;1.57;1.57;;;;;;;;;;6216390;28;20296;-74
2023/03/30 01:28:03;;;;;;;1.43;1.43;;;;;;;;;;6237558;28;20294;-74
2023/03/30 01:31:44;;;;;;;1.50;1.50;;;;;;;;;;6227912;28;20457;-74
2023/03/30 01:35:10;;;;;;;1.47;1.37;;;;;;;;;;6233921;28;20295;-75
2023/03/30 01:38:51;;;;;;;1.47;1.47;;;;;;;;;;6237248;28;20295;-74
2023/03/30 01:42:01;;;;;;;1.57;1.57;;;;;;;;;;6225330;28;20310;-73
2023/03/30 01:45:12;;;;;;;2.00;1.40;;;;;;;;;;6237648;28;20507;-74
2023/03/30 01:48:22;;;;;;;1.90;1.60;;;;;;;;;;6237837;28;20298;-74
2023/03/30 01:51:32;;;;;;;2.17;1.80;;;;;;;;;;6237061;28;20293;-74
2023/03/30 01:54:40;;;;;;;1.70;1.60;;;;;;;;;;6237668;28;20290;-73
2023/03/30 01:57:52;;;;;;;2.07;1.40;;;;;;;;;;6237191;28;20313;-74
2023/03/30 02:00:58;;;;;;;1.47;1.47;;;;;;;;;;6236909;28;20311;-74
2023/03/30 02:04:04;;;;;;;1.40;1.40;;;;;;;;;;6236412;28;20622;-74
2023/03/30 02:07:13;;;;;;;1.50;1.50;;;;;;;;;;6236732;28;20289;-73
2023/03/30 02:10:21;;;;;;;1.70;1.70;;;;;;;;;;6237416;28;20314;-74
2023/03/30 02:13:28;;;;;;;1.33;1.33;;;;;;;;;;6256426;28;20489;-73
2023/03/30 02:16:37;;;;;;;1.27;1.27;;;;;;;;;;6260480;28;20294;-73
2023/03/30 02:19:45;;;;;;;1.60;1.50;;;;;;;;;;6240156;28;20311;-73
2023/03/30 02:22:50;;;;;;;2.77;1.67;;;;;;;;;;6260143;28;20294;-74
2023/03/30 02:25:56;;;;;;;1.70;1.60;;;;;;;;;;6261842;28;20268;-74
2023/03/30 02:29:03;;;;;;;1.60;1.50;;;;;;;;;;6250113;28;20302;-74
2023/03/30 02:32:17;;;;;;;1.50;1.50;;;;;;;;;;6260530;28;20286;-75
2023/03/30 02:35:37;;;;;;;1.67;1.63;;;;;;;;;;6259970;28;20293;-74
2023/03/30 02:39:06;;;;;;;1.60;1.60;;;;;;;;;;6259438;28;20320;-74
2023/03/30 02:42:39;;;;;;;1.43;1.43;;;;;;;;;;6262094;28;20298;-74
2023/03/30 02:45:52;;;;;;;1.70;1.60;;;;;;;;;;6260593;28;20290;-74
2023/03/30 02:49:07;;;;;;;1.40;1.40;;;;;;;;;;6259578;28;20290;-73
2023/03/30 02:52:24;;;;;;;1.83;1.77;;;;;;;;;;6260331;28;20298;-74
2023/03/30 02:55:35;;;;;;;2.43;1.70;;;;;;;;;;6259343;28;20294;-74
2023/03/30 02:59:04;;;;;;;1.50;1.50;;;;;;;;;;6258173;28;20310;-74
2023/03/30 03:02:16;;;;;;;1.67;1.57;;;;;;;;;;6242624;28;20295;-73
2023/03/30 03:05:25;;;;;;;2.43;1.40;;;;;;;;;;6233213;28;20307;-74
2023/03/30 03:08:48;;;;;;;1.60;1.60;;;;;;;;;;6211626;28;20296;-74
2023/03/30 03:12:00;;;;;;;1.23;1.23;;;;;;;;;;6262240;28;20300;-74
2023/03/30 03:15:15;;;;;;;1.50;1.50;;;;;;;;;;6235855;28;20527;-74
2023/03/30 03:18:40;;;;;;;1.60;1.60;;;;;;;;;;6234637;28;20292;-74
2023/03/30 03:21:46;;;;;;;1.63;1.53;;;;;;;;;;6234379;28;20459;-74
2023/03/30 03:24:52;;;;;;;1.60;1.60;;;;;;;;;;6266896;28;20304;-73
2023/03/30 03:28:07;;;;;;;1.40;1.40;;;;;;;;;;6266838;28;20620;-73
2023/03/30 03:31:18;;;;;;;1.40;1.40;;;;;;;;;;6266693;28;20299;-73
2023/03/30 03:34:25;;;;;;;1.47;1.33;;;;;;;;;;6266613;28;20305;-73
2023/03/30 03:37:35;;;;;;;1.50;1.40;;;;;;;;;;6234341;28;20588;-73
2023/03/30 03:40:40;;;;;;;2.00;1.43;;;;;;;;;;6232836;28;20283;-74
2023/03/30 03:43:45;;;;;;;1.37;1.37;;;;;;;;;;6258034;28;20315;-74
2023/03/30 03:46:53;;;;;;;1.70;1.63;;;;;;;;;;6259267;28;20270;-74
2023/03/30 03:50:05;;;;;;;2.03;1.30;;;;;;;;;;6258217;28;20315;-74
2023/03/30 03:53:13;;;;;;;1.50;1.50;;;;;;;;;;6259133;28;20546;-74
2023/03/30 03:56:18;;;;;;;1.77;1.63;;;;;;;;;;6258362;28;20307;-73
2023/03/30 03:59:25;;;;;;;1.57;1.47;;;;;;;;;;6258104;28;20293;-73
2023/03/30 04:02:32;;;;;;;1.67;1.57;;;;;;;;;;6258439;28;20295;-73
2023/03/30 04:05:40;;;;;;;1.53;1.47;;;;;;;;;;6257844;28;20334;-74
2023/03/30 04:08:46;;;;;;;1.53;1.53;;;;;;;;;;6257877;28;20297;-74
2023/03/30 04:12:03;;;;;;;1.70;1.60;;;;;;;;;;6236896;28;20555;-73
2023/03/30 04:15:26;;;;;;;1.40;1.40;;;;;;;;;;6257273;28;20310;-73
2023/03/30 04:18:45;;;;;;;1.30;1.30;;;;;;;;;;6257755;28;20478;-74
2023/03/30 04:22:12;;;;;;;1.40;1.40;;;;;;;;;;6259908;28;20295;-74
2023/03/30 04:25:44;;;;;;;1.50;1.50;;;;;;;;;;6249311;28;20303;-74
2023/03/30 04:29:19;;;;;;;1.60;1.50;;;;;;;;;;6257695;28;20294;-74
2023/03/30 04:32:43;;;;;;;1.60;1.60;;;;;;;;;;6259009;28;20306;-73
2023/03/30 04:36:16;;;;;;;4.33;1.60;;;;;;;;;;6243181;28;20385;-74
2023/03/30 04:39:40;;;;;;;1.47;1.47;;;;;;;;;;6257081;28;20303;-74
2023/03/30 04:43:04;;;;;;;1.60;1.50;;;;;;;;;;6262203;28;20346;-73
2023/03/30 04:46:31;;;;;;;1.53;1.53;;;;;;;;;;6263088;28;20413;-74
2023/03/30 04:49:54;;;;;;;1.60;1.60;;;;;;;;;;6262765;28;20298;-73
2023/03/30 04:53:18;;;;;;;1.40;1.40;;;;;;;;;;6263348;28;20301;-74
2023/03/30 04:56:45;;;;;;;1.50;1.50;;;;;;;;;;6264015;28;20478;-75
2023/03/30 05:00:12;;;;;;;2.03;1.90;;;;;;;;;;6263422;28;20365;-74
2023/03/30 05:03:36;;;;;;;1.83;1.73;;;;;;;;;;6263051;28;20314;-74
2023/03/30 05:07:06;;;;;;;1.60;1.60;;;;;;;;;;6263012;28;20589;-73
2023/03/30 05:10:24;;;;;;;1.53;1.53;;;;;;;;;;6254411;28;20365;-74
2023/03/30 05:14:03;;;;;;;1.77;1.57;;;;;;;;;;6231577;28;20568;-73
2023/03/30 05:17:37;;;;;;;1.70;1.70;;;;;;;;;;6222777;28;20295;-74
2023/03/30 05:21:01;;;;;;;2.50;1.50;;;;;;;;;;6261502;28;20337;-73
2023/03/30 05:24:29;;;;;;;1.47;1.47;;;;;;;;;;6244565;28;20301;-74
2023/03/30 05:27:53;;;;;;;1.50;1.50;;;;;;;;;;6238505;28;20348;-74
2023/03/30 05:31:20;;;;;;;1.77;1.77;;;;;;;;;;6239029;28;20580;-74
2023/03/30 05:34:46;;;;;;;1.80;1.70;;;;;;;;;;6237571;28;20388;-73
2023/03/30 05:38:14;;;;;;;1.40;1.40;;;;;;;;;;6227333;28;20300;-73
2023/03/30 05:41:38;;;;;;;1.80;1.70;;;;;;;;;;6238785;28;20300;-74
2023/03/30 05:45:01;;;;;;;5.83;1.73;;;;;;;;;;6238165;28;20305;-75
2023/03/30 05:48:34;;;;;;;1.47;1.40;;;;;;;;;;6238168;28;20217;-74
2023/03/30 05:51:57;;;;;;;1.40;1.40;;;;;;;;;;6238766;28;20113;-73
2023/03/30 05:55:32;;;;;;;;;;;;;;;;;;6234674;28;20298;-74
2023/03/30 05:58:55;;;;;;;;;;;;;;;;;;6247348;28;19980;-74
2023/03/30 06:02:16;;;;;;;;;;;;;;;;;;6261847;28;20092;-74
2023/03/30 06:05:24;;;;;;;;;;;;;;;;;;6260583;28;20164;-74
2023/03/30 06:08:30;;;;;;;;;;;;;;;;;;6277699;28;19979;-74
2023/03/30 06:11:39;;;;;;;;;;;;;;;;;;6247630;28;19983;-74
2023/03/30 06:15:01;;;;;;;;;;;;;;;;;;6277719;28;19980;-74
2023/03/30 06:18:16;;;;;;;;;;;;;;;;;;6260952;28;20253;-73
2023/03/30 06:21:30;;;;;;;;;;;;;;;;;;6261360;28;19976;-74
2023/03/30 06:25:15;;;;;;;;;;;;;;;;;;6234507;28;20165;-74
2023/03/30 06:28:20;;;;;;;;;;;;;;;;;;6218266;28;19980;-74
2023/03/30 06:31:25;;;;;;;;;;;;;;;;;;6261174;28;19980;-73
2023/03/30 06:34:47;;;;;;;;;;;;;;;;;;6268902;28;19983;-73
2023/03/30 06:37:54;;;;;;;;;;;;;;;;;;6260168;28;19992;-74
2023/03/30 06:41:03;;;;;;;;;;;;;;;;;;6262622;28;19975;-73
2023/03/30 06:44:13;;;;;;;;;;;;;;;;;;6260621;28;19984;-73
2023/03/30 06:47:22;;;;;;;;;;;;;;;;;;6260672;28;20067;-74
2023/03/30 06:50:28;;;;;;;;;;;;;;;;;;6277043;28;19984;-74
2023/03/30 06:54:04;;;;;;;2.13;1.40;;;;;;;;;;6256970;28;20295;-73
2023/03/30 06:57:11;;;;;;;1.63;1.40;;;;;;;;;;6260039;28;20310;-73
2023/03/30 07:00:17;;;;;;;1.40;1.40;;;;;;;;;;6259690;28;20299;-74
2023/03/30 07:03:42;;;;;;;1.70;1.60;;;;;;;;;;6260857;28;20306;-74
2023/03/30 07:06:58;;;;;;;1.70;1.23;;;;;;;;;;6259831;28;20587;-73
2023/03/30 07:10:09;;;;;;;1.60;1.50;;;;;;;;;;6260604;28;20583;-74
2023/03/30 07:13:15;;;;;;;1.47;1.47;;;;;;;;;;6241481;28;20302;-74
2023/03/30 07:16:23;;;;;;;1.53;1.33;;;;;;;;;;6235331;28;20315;-73
2023/03/30 07:19:30;;;;;;;1.70;1.40;;;;;;;;;;6234736;28;20295;-74
2023/03/30 07:22:35;;;;;;;1.60;1.50;;;;;;;;;;6235206;28;20458;-73
2023/03/30 07:25:42;;;;;;;1.60;1.50;;;;;;;;;;6234362;28;20287;-73
2023/03/30 07:28:52;;;;;;;2.53;1.30;;;;;;;;;;6234667;28;20293;-73
2023/03/30 07:31:59;;;;;;;1.47;1.47;;;;;;;;;;6235130;28;20294;-74
2023/03/30 07:35:05;;;;;;;1.30;1.30;;;;;;;;;;6234314;28;20302;-73
2023/03/30 07:38:14;;;;;;;3.60;1.87;;;;;;;;;;6234447;28;20291;-73
2023/03/30 07:41:27;;;;;;;1.73;1.60;;;;;;;;;;6234769;28;20366;-73
2023/03/30 07:44:35;;;;;;;1.60;1.50;;;;;;;;;;6234531;28;20299;-74
2023/03/30 07:47:44;;;;;;;1.50;1.40;;;;;;;;;;6233973;28;20304;-74
2023/03/30 07:50:50;;;;;;;1.40;1.30;;;;;;;;;;6234556;28;20294;-73
2023/03/30 07:53:56;;;;;;;1.70;1.67;;;;;;;;;;6234086;28;20291;-74
2023/03/30 07:57:12;;;;;;;1.60;1.60;;;;;;;;;;6234756;28;20291;-74
2023/03/30 08:00:20;;;;;;;1.60;1.60;;;;;;;;;;6233984;28;20406;-74
2023/03/30 08:03:44;;;;;;;1.40;1.40;;;;;;;;;;6234955;28;20619;-74
2023/03/30 08:06:51;;;;;;;1.40;1.40;;;;;;;;;;6234747;28;20613;-74
2023/03/30 08:09:57;;;;;;;1.53;1.40;;;;;;;;;;6234134;28;20292;-74
2023/03/30 08:13:03;;;;;;;1.30;1.30;;;;;;;;;;6237552;28;20464;-74
2023/03/30 08:16:09;;;;;;;1.73;1.30;;;;;;;;;;6233808;28;20307;-75
2023/03/30 08:19:14;;;;;;;1.80;1.40;;;;;;;;;;6233832;28;20323;-74
2023/03/30 08:22:19;;;;;;;1.70;1.70;;;;;;;;;;6235519;28;20373;-74
2023/03/30 08:25:25;;;;;;;2.37;1.50;;;;;;;;;;6234936;28;20301;-73
2023/03/30 08:28:31;;;;;;;1.60;1.60;;;;;;;;;;6234032;28;20345;-75
2023/03/30 08:31:37;;;;;;;1.60;1.60;;;;;;;;;;6235560;28;20289;-75
2023/03/30 08:34:42;;;;;;;1.57;1.53;;;;;;;;;;6233892;28;20312;-74
2023/03/30 08:37:47;;;;;;;1.70;1.70;;;;;;;;;;6234402;28;20288;-74
2023/03/30 08:40:53;;;;;;;1.50;1.50;;;;;;;;;;6235360;28;20574;-74
2023/03/30 08:44:00;;;;;;;1.67;1.67;;;;;;;;;;6234844;28;20600;-74
2023/03/30 08:47:10;;;;;;;1.53;1.53;;;;;;;;;;6235212;28;20286;-74
2023/03/30 08:50:18;;;;;;;1.30;1.30;;;;;;;;;;6234426;28;20300;-74
2023/03/30 08:53:23;;;;;;;4.10;3.70;;;;;;;;;;6234315;28;20298;-74
2023/03/30 08:56:31;;;;;;;3.90;3.60;;;;;;;;;;6235197;28;20309;-74
2023/03/30 08:59:43;;;;;;;2.80;2.70;;;;;;;;;;6234780;28;20292;-74
2023/03/30 09:02:50;;;;;;;1.40;1.40;;;;;;;;;;6234000;28;20311;-74
2023/03/30 09:05:57;;;;;;;2.77;2.67;;;;;;;;;;6234916;28;20302;-75
2023/03/30 09:09:02;;;;;;;2.10;2.10;;;;;;;;;;6234178;28;20290;-74
2023/03/30 09:12:12;;;;;;;1.60;1.60;;;;;;;;;;6237859;28;20288;-74
2023/03/30 09:15:21;;;;;;;1.10;1.10;;;;;;;;;;6233826;28;20515;-73
2023/03/30 09:18:29;;;;;;;1.17;1.17;;;;;;;;;;6233889;28;20309;-73
2023/03/30 09:21:35;;;;;;;1.40;1.30;;;;;;;;;;6234609;28;20297;-74
2023/03/30 09:24:40;;;;;;;1.10;1.10;;;;;;;;;;6234113;28;20479;-74
2023/03/30 09:27:54;;;;;;;1.30;1.30;;;;;;;;;;6235302;28;20290;-73
2023/03/30 09:31:03;;;;;;;1.40;1.40;;;;;;;;;;6239329;28;20294;-74
2023/03/30 09:34:19;;;;;;;3.07;2.87;;;;;;;;;;6238610;28;20293;-74
2023/03/30 09:37:25;;;;;;;1.33;1.33;;;;;;;;;;6238918;28;20588;-74
2023/03/30 09:40:43;;;;;;;1.30;1.30;;;;;;;;;;6238410;28;20292;-74
2023/03/30 09:43:48;;;;;;;1.10;1.10;;;;;;;;;;6236743;28;20294;-73
2023/03/30 09:46:58;;;;;;;1.20;1.10;;;;;;;;;;6238828;28;20284;-75
2023/03/30 09:50:07;;;;;;;2.30;2.20;;;;;;;;;;6238452;28;20310;-73
2023/03/30 09:53:21;;;;;;;1.87;1.77;;;;;;;;;;6238303;28;20630;-73
2023/03/30 09:56:30;;;;;;;1.50;1.50;;;;;;;;;;6238656;28;20295;-74
2023/03/30 09:59:36;;;;;;;1.27;1.27;;;;;;;;;;6237675;28;20303;-74
2023/03/30 10:02:56;;;;;;;1.20;1.20;;;;;;;;;;6236619;28;20307;-74
2023/03/30 10:06:04;;;;;;;1.23;1.23;;;;;;;;;;6238249;28;20555;-75
2023/03/30 10:09:12;;;;;;;1.47;1.37;;;;;;;;;;6237852;28;20292;-74
2023/03/30 10:12:17;;;;;;;1.10;1.10;;;;;;;;;;6241388;28;20292;-74
2023/03/30 10:15:25;;;;;;;4.73;1.63;;;;;;;;;;6237983;28;20407;-75
2023/03/30 10:18:40;;;;;;;1.10;1.10;;;;;;;;;;6237972;28;20485;-74
2023/03/30 10:21:46;;;;;;;2.90;1.03;;;;;;;;;;6238233;28;20299;-74
2023/03/30 10:24:53;;;;;;;3.63;3.37;;;;;;;;;;6237531;28;20596;-74
2023/03/30 10:28:03;;;;;;;2.47;2.37;;;;;;;;;;6237712;28;20512;-75
2023/03/30 10:31:13;;;;;;;1.30;1.30;;;;;;;;;;6237894;28;20291;-75
2023/03/30 10:34:23;;;;;;;1.70;1.60;;;;;;;;;;6237498;28;20412;-75
2023/03/30 10:37:32;;;;;;;1.50;1.40;;;;;;;;;;6237754;28;20308;-74
2023/03/30 10:40:40;;;;;;;1.40;1.40;;;;;;;;;;6236766;28;20434;-75
2023/03/30 10:43:45;;;;;;;1.70;1.70;;;;;;;;;;6236002;28;20304;-75
2023/03/30 10:46:53;;;;;;;1.30;1.30;;;;;;;;;;6235752;28;20272;-74
2023/03/30 10:50:07;;;;;;;1.33;1.00;;;;;;;;;;6236561;28;20317;-75
2023/03/30 10:53:25;;;;;;;1.33;1.33;;;;;;;;;;6236276;28;20303;-74
2023/03/30 10:56:33;;;;;;;2.10;1.30;;;;;;;;;;6237104;28;20302;-74
2023/03/30 10:59:56;;;;;;;1.40;1.40;;;;;;;;;;6236603;28;20306;-75
2023/03/30 11:03:08;;;;;;;1.40;1.40;;;;;;;;;;6236507;28;20362;-75
2023/03/30 11:06:19;;;;;;;1.37;1.30;;;;;;;;;;6237006;28;20288;-75
2023/03/30 11:09:28;;;;;;;2.30;1.20;;;;;;;;;;6236536;28;20596;-74
2023/03/30 11:12:41;;;;;;;1.37;1.27;;;;;;;;;;6225026;28;20327;-73
2023/03/30 11:15:49;;;;;;;1.17;1.17;;;;;;;;;;6260138;28;20293;-74
2023/03/30 11:18:59;;;;;;;1.20;1.20;;;;;;;;;;6249203;28;20308;-74
2023/03/30 11:22:09;;;;;;;1.20;1.20;;;;;;;;;;6256714;28;20299;-75
2023/03/30 11:25:19;;;;;;;1.30;1.30;;;;;;;;;;6260497;28;20306;-74
2023/03/30 11:28:41;;;;;;;2.40;1.50;;;;;;;;;;6260241;28;20338;-73
2023/03/30 11:31:53;;;;;;;1.63;1.63;;;;;;;;;;6259307;28;20278;-74
2023/03/30 11:35:04;;;;;;;1.20;1.20;;;;;;;;;;6258675;28;20310;-74
2023/03/30 11:38:16;;;;;;;1.33;1.20;;;;;;;;;;6260492;28;20315;-74
2023/03/30 11:41:24;;;;;;;1.30;1.30;;;;;;;;;;6260834;28;20294;-74
2023/03/30 11:44:29;;;;;;;1.30;1.30;;;;;;;;;;6260137;28;20294;-74
2023/03/30 11:47:47;;;;;;;1.43;1.33;;;;;;;;;;6260178;28;20302;-74
2023/03/30 11:51:14;;;;;;;1.73;1.63;;;;;;;;;;6258571;28;20291;-75
2023/03/30 11:54:42;;;;;;;1.40;1.30;;;;;;;;;;6260014;28;20298;-74
2023/03/30 11:58:13;;;;;;;1.23;1.23;;;;;;;;;;6260365;28;20295;-74
2023/03/30 12:01:31;;;;;;;1.90;1.20;;;;;;;;;;6260240;28;20314;-74
2023/03/30 12:04:40;;;;;;;1.37;1.30;;;;;;;;;;6258336;28;20299;-74
2023/03/30 12:07:54;;;;;;;1.27;1.27;;;;;;;;;;6258472;28;20278;-74
2023/03/30 12:11:07;;;;;;;1.27;1.27;;;;;;;;;;6246462;28;20292;-75
2023/03/30 12:14:33;;;;;;;1.43;1.43;;;;;;;;;;6209915;28;20288;-73
2023/03/30 12:17:49;;;;;;;1.60;1.17;;;;;;;;;;6241814;28;20300;-75
2023/03/30 12:20:58;;;;;;;1.30;1.30;;;;;;;;;;6209373;28;20308;-75
2023/03/30 12:24:10;;;;;;;1.30;1.30;;;;;;;;;;6210122;28;20577;-75
2023/03/30 12:27:16;;;;;;;2.50;2.40;;;;;;;;;;6210968;28;20308;-74
2023/03/30 12:30:26;;;;;;;1.17;1.17;;;;;;;;;;6210439;28;20304;-74
2023/03/30 12:33:36;;;;;;;1.20;1.20;;;;;;;;;;6222072;28;20488;-74
2023/03/30 12:36:42;;;;;;;1.20;1.20;;;;;;;;;;6235017;28;20299;-74
2023/03/30 12:39:48;;;;;;;1.33;1.10;;;;;;;;;;6234312;28;20308;-74
2023/03/30 12:43:10;;;;;;;2.23;1.40;;;;;;;;;;6234347;28;20295;-75
2023/03/30 12:46:26;;;;;;;1.43;1.43;;;;;;;;;;6235356;28;20294;-74
2023/03/30 12:49:43;;;;;;;1.67;1.57;;;;;;;;;;6234148;28;20302;-74
2023/03/30 12:52:59;;;;;;;1.13;1.13;;;;;;;;;;6256842;28;20277;-74
2023/03/30 12:56:11;;;;;;;1.13;1.13;;;;;;;;;;6234194;28;20290;-74
2023/03/30 12:59:57;;;;;;;1.27;1.20;;;;;;;;;;6234140;28;20473;-75
2023/03/30 13:03:31;;;;;;;1.30;1.20;;;;;;;;;;6189843;28;20288;-74
2023/03/30 13:06:37;;;;;;;1.43;1.37;;;;;;;;;;6239631;28;20292;-75
2023/03/30 13:09:55;;;;;;;1.10;1.10;;;;;;;;;;6237490;28;20360;-74
2023/03/30 13:13:01;;;;;;;1.33;1.33;;;;;;;;;;6242113;28;20293;-75
2023/03/30 13:16:09;;;;;;;1.40;1.40;;;;;;;;;;6239386;28;20296;-75
2023/03/30 13:19:26;;;;;;;1.50;1.40;;;;;;;;;;6238608;28;20433;-74
2023/03/30 13:22:32;;;;;;;1.23;1.23;;;;;;;;;;6239171;28;20295;-75
2023/03/30 13:25:39;;;;;;;1.43;1.30;;;;;;;;;;6238681;28;20307;-74
2023/03/30 13:28:57;;;;;;;2.87;1.30;;;;;;;;;;6238203;28;20414;-74
2023/03/30 13:32:16;;;;;;;1.30;1.30;;;;;;;;;;6237915;28;20289;-73
2023/03/30 13:35:37;;;;;;;1.30;1.30;;;;;;;;;;6239230;28;20299;-74
2023/03/30 13:39:01;;;;;;;2.20;1.40;;;;;;;;;;6237185;28;20300;-75
2023/03/30 13:42:22;;;;;;;1.43;1.20;;;;;;;;;;6239198;28;20295;-74
2023/03/30 13:45:35;;;;;;;1.40;1.40;;;;;;;;;;6238294;28;20297;-75
2023/03/30 13:48:54;;;;;;;1.40;1.30;;;;;;;;;;6237454;28;20296;-75
2023/03/30 13:52:05;;;;;;;1.47;1.37;;;;;;;;;;6239167;28;20308;-74
2023/03/30 13:55:18;;;;;;;1.40;1.30;;;;;;;;;;6238443;28;20293;-74
2023/03/30 13:58:25;;;;;;;1.30;1.23;;;;;;;;;;6238598;28;20293;-74
2023/03/30 14:01:30;;;;;;;3.23;1.40;;;;;;;;;;6238473;28;20296;-74
2023/03/30 14:04:37;;;;;;;2.53;1.40;;;;;;;;;;6238098;28;20305;-75
2023/03/30 14:07:46;;;;;;;1.60;1.50;;;;;;;;;;6237339;28;20268;-75
2023/03/30 14:10:52;;;;;;;4.63;1.70;;;;;;;;;;6239049;28;20264;-73
2023/03/30 14:13:58;;;;;;;1.80;1.60;;;;;;;;;;6237931;28;20292;-73
2023/03/30 14:17:12;;;;;;;1.57;1.53;;;;;;;;;;6238132;28;20280;-74
2023/03/30 14:20:26;;;;;;;1.63;1.53;;;;;;;;;;6237682;28;20293;-73
2023/03/30 14:23:39;;;;;;;5.60;1.90;;;;;;;;;;6237410;28;20604;-74
2023/03/30 14:26:46;;;;;;;1.67;1.40;;;;;;;;;;6236861;28;20362;-75
2023/03/30 14:29:52;;;;;;;1.40;1.37;;;;;;;;;;6237326;28;20487;-75
2023/03/30 14:33:07;;;;;;;1.50;1.40;;;;;;;;;;6237423;28;20300;-75
2023/03/30 14:36:15;;;;;;;2.40;1.60;;;;;;;;;;6238118;28;20307;-75
2023/03/30 14:39:23;;;;;;;1.80;1.70;;;;;;;;;;6237744;28;20606;-76
2023/03/30 14:42:33;;;;;;;1.60;1.50;;;;;;;;;;6237826;28;20288;-75
2023/03/30 14:45:38;;;;;;;1.53;1.47;;;;;;;;;;6237462;28;20303;-74
2023/03/30 14:48:44;;;;;;;2.67;1.40;;;;;;;;;;6236970;28;20312;-74
2023/03/30 14:51:53;;;;;;;1.47;1.47;;;;;;;;;;6237647;28;20292;-73
2023/03/30 14:55:00;;;;;;;1.30;1.30;;;;;;;;;;6235817;28;20298;-74
2023/03/30 14:58:15;;;;;;;1.47;1.37;;;;;;;;;;6236945;28;20296;-73
2023/03/30 15:01:29;;;;;;;3.90;1.40;;;;;;;;;;6237366;28;20298;-75
2023/03/30 15:04:37;;;;;;;1.40;1.30;;;;;;;;;;6236400;28;20308;-74
2023/03/30 15:07:42;;;;;;;1.83;1.53;;;;;;;;;;6235067;28;20277;-74
2023/03/30 15:10:54;;;;;;;1.80;1.47;;;;;;;;;;6238222;28;20273;-75
2023/03/30 15:14:03;;;;;;;2.50;1.50;;;;;;;;;;6236457;28;20461;-73
2023/03/30 15:17:11;;;;;;;1.40;1.40;;;;;;;;;;6236802;28;20287;-74
2023/03/30 15:20:16;;;;;;;2.13;2.10;;;;;;;;;;6235542;28;20306;-74
2023/03/30 15:23:22;;;;;;;1.37;1.37;;;;;;;;;;6235722;28;20294;-74
2023/03/30 15:26:29;;;;;;;1.63;1.60;;;;;;;;;;6235010;28;20298;-74
2023/03/30 15:29:35;;;;;;;1.60;1.60;;;;;;;;;;6235115;28;20317;-74
2023/03/30 15:32:40;;;;;;;1.60;1.60;;;;;;;;;;6236373;28;20292;-74
2023/03/30 15:35:46;;;;;;;1.67;1.67;;;;;;;;;;6234213;28;20294;-74
2023/03/30 15:38:53;;;;;;;1.60;1.60;;;;;;;;;;6234314;28;20467;-74
2023/03/30 15:42:03;;;;;;;1.50;1.50;;;;;;;;;;6236037;28;20299;-73
2023/03/30 15:45:12;;;;;;;1.37;1.37;;;;;;;;;;6235432;28;20339;-74
2023/03/30 15:48:20;;;;;;;1.83;1.70;;;;;;;;;;6235357;28;20302;-73
2023/03/30 15:51:29;;;;;;;1.77;1.77;;;;;;;;;;6236023;28;20305;-73
2023/03/30 15:54:37;;;;;;;1.53;1.50;;;;;;;;;;6235431;28;20486;-73
2023/03/30 15:57:47;;;;;;;1.50;1.50;;;;;;;;;;6234869;28;20304;-74
2023/03/30 16:00:53;;;;;;;1.90;1.80;;;;;;;;;;6235816;28;20302;-75
2023/03/30 16:04:01;;;;;;;1.47;1.47;;;;;;;;;;6233804;28;20296;-74
2023/03/30 16:07:14;;;;;;;1.70;1.70;;;;;;;;;;6235407;28;20295;-76
2023/03/30 16:10:23;;;;;;;1.60;1.50;;;;;;;;;;6234824;28;20300;-74
2023/03/30 16:13:30;;;;;;;3.83;1.60;;;;;;;;;;6238743;28;20456;-74
2023/03/30 16:16:35;;;;;;;1.60;1.60;;;;;;;;;;6235892;28;20367;-74
2023/03/30 16:19:41;;;;;;;2.40;1.50;;;;;;;;;;6234263;28;20407;-74
2023/03/30 16:22:46;;;;;;;1.60;1.60;;;;;;;;;;6234527;28;20457;-75
2023/03/30 16:25:51;;;;;;;2.33;1.77;;;;;;;;;;6234644;28;20274;-78
2023/03/30 16:28:58;;;;;;;2.80;2.03;;;;;;;;;;6233248;28;20300;-74
2023/03/30 16:32:03;;;;;;;1.50;1.50;;;;;;;;;;6235296;28;20290;-73
2023/03/30 16:35:09;;;;;;;1.57;1.57;;;;;;;;;;6234440;28;20284;-73
2023/03/30 16:38:16;;;;;;;1.40;1.40;;;;;;;;;;6233564;28;20313;-73
2023/03/30 16:41:22;;;;;;;1.50;1.50;;;;;;;;;;6234306;28;20305;-73
2023/03/30 16:44:29;;;;;;;1.70;1.60;;;;;;;;;;6234341;28;20306;-75
2023/03/30 16:47:36;;;;;;;1.60;1.60;;;;;;;;;;6234742;28;20607;-74
2023/03/30 16:50:42;;;;;;;1.63;1.63;;;;;;;;;;6234526;28;20300;-74
2023/03/30 16:53:47;;;;;;;2.00;1.90;;;;;;;;;;6234032;28;20296;-74
2023/03/30 16:56:52;;;;;;;2.20;1.90;;;;;;;;;;6234739;28;20344;-74
2023/03/30 16:59:59;;;;;;;3.67;2.30;;;;;;;;;;6234318;28;20318;-75
2023/03/30 17:03:05;;;;;;;2.30;1.90;;;;;;;;;;6233978;28;20300;-75
2023/03/30 17:06:12;;;;;;;1.97;1.87;;;;;;;;;;6234826;28;20448;-75
2023/03/30 17:09:19;;;;;;;1.50;1.50;;;;;;;;;;6234011;28;20294;-73
2023/03/30 17:12:25;;;;;;;2.17;2.07;;;;;;;;;;6237913;28;20615;-75
2023/03/30 17:15:33;;;;;;;2.00;1.90;;;;;;;;;;6234457;28;20302;-75
2023/03/30 17:18:39;;;;;;;1.77;1.77;;;;;;;;;;6234303;28;20293;-74
2023/03/30 17:21:44;;;;;;;1.57;1.57;;;;;;;;;;6234476;28;20375;-76
2023/03/30 17:24:50;;;;;;;1.67;1.67;;;;;;;;;;6233463;28;20328;-76
2023/03/30 17:27:57;;;;;;;1.67;1.67;;;;;;;;;;6234065;28;20457;-75
2023/03/30 17:31:06;;;;;;;2.33;2.10;;;;;;;;;;6234166;28;20313;-74
2023/03/30 17:34:15;;;;;;;4.17;2.90;;;;;;;;;;6233873;28;20298;-75
2023/03/30 17:37:20;;;;;;;7.20;2.63;;;;;;;;;;6233971;28;20304;-74
2023/03/30 17:40:26;;;;;;;3.10;2.90;;;;;;;;;;6233944;28;20297;-73
2023/03/30 17:43:31;;;;;;;4.97;2.40;;;;;;;;;;6235141;28;20314;-75
2023/03/30 17:46:39;;;;;;;2.70;2.47;;;;;;;;;;6234226;28;20307;-74
2023/03/30 17:49:45;;;;;;;2.50;2.40;;;;;;;;;;6234287;28;20292;-74
2023/03/30 17:52:51;;;;;;;2.80;2.63;;;;;;;;;;6237858;28;20412;-74
2023/03/30 17:55:56;;;;;;;2.57;2.37;;;;;;;;;;6238255;28;20454;-76
2023/03/30 17:59:01;;;;;;;3.90;2.37;;;;;;;;;;6237625;28;20596;-74
2023/03/30 18:02:09;;;;;;;2.47;2.47;;;;;;;;;;6235687;28;20565;-74
2023/03/30 18:05:15;;;;;;;2.23;2.13;;;;;;;;;;6237717;28;20331;-74
2023/03/30 18:08:22;;;;;;;2.13;2.03;;;;;;;;;;6237704;28;20298;-75
2023/03/30 18:11:28;;;;;;;2.40;2.20;;;;;;;;;;6241426;28;20308;-74
2023/03/30 18:14:33;;;;;;;2.27;2.10;;;;;;;;;;6237935;28;20292;-75
2023/03/30 18:17:39;;;;;;;2.20;2.10;;;;;;;;;;6238283;28;20299;-75
2023/03/30 18:20:48;;;;;;;2.40;2.30;;;;;;;;;;6237729;28;20300;-75
2023/03/30 18:23:53;;;;;;;2.30;2.20;;;;;;;;;;6237542;28;20297;-75
2023/03/30 18:26:58;;;;;;;1.90;1.80;;;;;;;;;;6237738;28;20303;-74
2023/03/30 18:30:09;;;;;;;3.13;2.30;;;;;;;;;;6236337;28;20296;-75
2023/03/30 18:33:16;;;;;;;2.60;2.33;;;;;;;;;;6237642;28;20300;-72
2023/03/30 18:36:22;;;;;;;2.10;1.97;;;;;;;;;;6237813;28;20303;-74
2023/03/30 18:39:27;;;;;;;2.80;2.20;;;;;;;;;;6237267;28;20503;-74
2023/03/30 18:42:32;;;;;;;2.20;2.10;;;;;;;;;;6237745;28;20305;-74
2023/03/30 18:45:39;;;;;;;2.33;2.30;;;;;;;;;;6236357;28;20300;-75
2023/03/30 18:48:47;;;;;;;1.97;1.97;;;;;;;;;;6237573;28;20316;-75
2023/03/30 18:51:52;;;;;;;2.00;1.90;;;;;;;;;;6237758;28;20304;-76
2023/03/30 18:54:58;;;;;;;2.47;2.27;;;;;;;;;;6237108;28;20304;-75
2023/03/30 18:58:05;;;;;;;1.90;1.90;;;;;;;;;;6235892;28;20312;-75
2023/03/30 19:01:14;;;;;;;2.10;2.00;;;;;;;;;;6236624;28;20298;-75
2023/03/30 19:04:21;;;;;;;2.67;1.87;;;;;;;;;;6236617;28;20622;-74
2023/03/30 19:07:26;;;;;;;2.20;1.93;;;;;;;;;;6237282;28;20298;-75
2023/03/30 19:10:33;;;;;;;2.03;1.90;;;;;;;;;;6236691;28;20292;-75
2023/03/30 19:13:39;;;;;;;1.40;1.40;;;;;;;;;;6221962;28;20313;-74
2023/03/30 19:16:44;;;;;;;1.60;1.60;;;;;;;;;;6237419;28;20274;-78